Alma, Alabama
Current Conditions -  °F | °C
As of 4:00 PM on Monday 22 Dec 2014 (Local Time) from KGZH Reporting Station
Light Rain Light Rain  
Wind Chill: 62°   Ceiling: 900
Heat Index: 62°   Visibility: 10mi
Dew Point: 59°   Wind: 9mph
Humidity: 90%   Direction: 110°ESE
Pressure: 29.79"   Gusts: NA
Location:  31.46°N, 87.75°W
Report Text: KGZH 222200Z AUTO 11008KT 10SM -RA BKN009 OVC015 17/15 A2979 RMK AO2 RAB2157 CIG 007V012 P0000 T01670150
Loading
Personal Weather Stations






























Interactive Weather Map New forecast layout! Learn more

10-Day Weather Forecast

Advertisements
Track Severe Weather on mobile